createdAt,value
2018-05-15T00:00:03.936Z,16.60
2018-05-15T00:02:32.508Z,16.60
2018-05-15T00:05:01.484Z,16.60
2018-05-15T00:07:36.316Z,16.60
2018-05-15T00:10:04.907Z,16.50
2018-05-15T00:12:34.135Z,16.50
2018-05-15T00:15:02.330Z,16.40
2018-05-15T00:17:30.529Z,16.50
2018-05-15T00:19:58.752Z,16.40
2018-05-15T00:22:26.954Z,16.40
2018-05-15T00:24:55.216Z,16.40
2018-05-15T00:27:23.425Z,16.40
2018-05-15T00:29:52.125Z,16.40
2018-05-15T00:32:20.621Z,16.40
2018-05-15T00:34:48.829Z,16.30
2018-05-15T00:37:17.034Z,16.20
2018-05-15T00:39:46.094Z,16.20
2018-05-15T00:42:15.062Z,16.30
2018-05-15T00:44:43.345Z,16.30
2018-05-15T00:47:12.352Z,16.10
2018-05-15T00:49:41.366Z,16.10
2018-05-15T00:52:09.532Z,16.10
2018-05-15T00:54:37.754Z,16.00
2018-05-15T00:57:06.272Z,16.10
2018-05-15T00:59:35.242Z,16.00
2018-05-15T01:02:04.468Z,16.00
2018-05-15T01:04:33.440Z,16.10
2018-05-15T01:07:01.640Z,16.10
2018-05-15T01:09:30.921Z,16.00
2018-05-15T01:11:59.598Z,16.00
2018-05-15T01:14:27.988Z,16.00
2018-05-15T01:16:56.187Z,15.90
2018-05-15T01:19:25.183Z,15.90
2018-05-15T01:21:54.145Z,15.90
2018-05-15T01:24:22.728Z,15.90
2018-05-15T01:26:51.417Z,15.90
2018-05-15T01:29:19.628Z,15.90
2018-05-15T01:31:48.181Z,15.80
2018-05-15T01:34:16.775Z,15.90
2018-05-15T01:36:44.978Z,15.80
2018-05-15T01:39:13.436Z,15.80
2018-05-15T01:41:42.415Z,15.80
2018-05-15T01:44:10.724Z,15.70
2018-05-15T01:46:38.930Z,15.70
2018-05-15T01:49:08.364Z,15.70
2018-05-15T01:51:36.560Z,15.70
2018-05-15T01:54:04.816Z,15.70
2018-05-15T01:56:33.028Z,15.70
2018-05-15T01:59:01.993Z,15.60
2018-05-15T02:01:30.324Z,15.60
2018-05-15T02:03:58.906Z,15.60
2018-05-15T02:06:27.640Z,15.60
2018-05-15T02:08:56.020Z,15.60
2018-05-15T02:11:24.644Z,15.50
2018-05-15T02:13:53.084Z,15.50
2018-05-15T02:16:21.287Z,15.50
2018-05-15T02:18:49.493Z,15.40
2018-05-15T02:21:17.712Z,15.40
2018-05-15T02:23:46.408Z,15.40
2018-05-15T02:26:15.020Z,15.40
2018-05-15T02:28:43.225Z,15.30
2018-05-15T02:31:21.155Z,15.30
2018-05-15T02:33:49.361Z,15.40
2018-05-15T02:36:17.553Z,15.40
2018-05-15T02:38:45.991Z,15.40
2018-05-15T02:41:14.192Z,15.30
2018-05-15T02:43:42.872Z,15.40
2018-05-15T02:46:11.847Z,15.30
2018-05-15T02:48:40.049Z,15.30
2018-05-15T02:51:09.037Z,15.40
2018-05-15T02:53:37.236Z,15.30
2018-05-15T02:56:05.437Z,15.30
2018-05-15T02:58:33.984Z,15.30
2018-05-15T03:01:02.950Z,15.30
2018-05-15T03:03:31.406Z,15.30
2018-05-15T03:05:59.869Z,15.40
2018-05-15T03:08:29.116Z,15.30
2018-05-15T03:11:01.732Z,15.40
2018-05-15T03:13:30.057Z,15.30
2018-05-15T03:15:58.273Z,15.30
2018-05-15T03:18:27.681Z,15.30
2018-05-15T03:20:56.648Z,15.20
2018-05-15T03:23:25.443Z,15.20
2018-05-15T03:25:54.557Z,15.10
2018-05-15T03:28:23.527Z,15.00
2018-05-15T03:30:51.723Z,15.00
2018-05-15T03:33:20.313Z,15.00
2018-05-15T03:35:49.265Z,15.00
2018-05-15T03:38:17.674Z,15.00
2018-05-15T03:40:45.881Z,14.90
2018-05-15T03:43:14.624Z,14.90
2018-05-15T03:45:42.830Z,14.90
2018-05-15T03:48:11.801Z,14.90
2018-05-15T03:50:40.012Z,14.90
2018-05-15T03:53:08.317Z,14.90
2018-05-15T03:55:36.516Z,14.90
2018-05-15T03:58:05.304Z,15.00
2018-05-15T04:00:51.502Z,14.90
2018-05-15T04:03:31.843Z,15.00
2018-05-15T04:06:12.444Z,14.90
2018-05-15T04:08:41.472Z,14.90
2018-05-15T04:11:10.781Z,14.80
2018-05-15T04:13:39.062Z,14.80
2018-05-15T04:16:07.536Z,14.80
2018-05-15T04:18:36.180Z,14.80
2018-05-15T04:21:04.463Z,14.80
2018-05-15T04:23:33.245Z,14.90
2018-05-15T04:26:01.834Z,14.90
2018-05-15T04:28:30.069Z,14.90
2018-05-15T04:30:58.244Z,15.00
2018-05-15T04:33:26.868Z,15.00
2018-05-15T04:35:55.068Z,15.00
2018-05-15T04:38:23.633Z,15.10
2018-05-15T04:40:52.795Z,15.20
2018-05-15T04:43:21.306Z,15.20
2018-05-15T04:45:49.872Z,15.10
2018-05-15T04:48:18.086Z,15.30
2018-05-15T04:50:47.072Z,15.50
2018-05-15T04:53:16.713Z,15.50
2018-05-15T04:55:53.356Z,15.50
2018-05-15T04:58:22.321Z,15.50
2018-05-15T05:00:50.912Z,15.50
2018-05-15T05:03:19.173Z,15.50
2018-05-15T05:05:47.376Z,15.60
2018-05-15T05:08:15.764Z,15.60
2018-05-15T05:10:45.581Z,15.60
2018-05-15T05:13:15.161Z,15.70
2018-05-15T05:15:43.368Z,15.70
2018-05-15T05:18:12.329Z,15.70
2018-05-15T05:20:40.556Z,15.70
2018-05-15T05:23:15.647Z,15.80
2018-05-15T05:25:51.932Z,15.80
2018-05-15T05:28:20.133Z,15.80
2018-05-15T05:30:48.336Z,15.80
2018-05-15T05:33:16.999Z,15.80
2018-05-15T05:35:45.436Z,15.90
2018-05-15T05:38:18.564Z,15.90
2018-05-15T05:40:46.759Z,16.00
2018-05-15T05:43:15.688Z,16.10
2018-05-15T05:45:44.380Z,16.10
2018-05-15T05:48:12.584Z,16.20
2018-05-15T05:50:41.564Z,16.20
2018-05-15T05:53:09.796Z,16.10
2018-05-15T05:55:37.993Z,16.20
2018-05-15T05:58:06.948Z,16.20
2018-05-15T06:00:35.145Z,16.30
2018-05-15T06:03:03.343Z,16.40
2018-05-15T06:05:31.584Z,16.40
2018-05-15T06:08:00.419Z,16.50
2018-05-15T06:10:28.620Z,16.60
2018-05-15T06:12:57.671Z,16.50
2018-05-15T06:15:25.860Z,16.50
2018-05-15T06:17:54.059Z,16.50
2018-05-15T06:20:22.279Z,16.60
2018-05-15T06:22:50.482Z,16.70
2018-05-15T06:25:19.182Z,16.80
2018-05-15T06:27:48.416Z,16.90
2018-05-15T06:30:16.947Z,17.00
2018-05-15T06:32:45.449Z,17.30
2018-05-15T06:35:13.647Z,17.40
2018-05-15T06:37:42.189Z,17.50
2018-05-15T06:40:10.772Z,17.60
2018-05-15T06:42:38.992Z,17.80
2018-05-15T06:45:08.684Z,18.10
2018-05-15T06:47:38.188Z,18.00
2018-05-15T06:50:06.396Z,18.00
2018-05-15T06:52:34.592Z,17.90
2018-05-15T06:55:03.436Z,18.00
2018-05-15T06:57:32.728Z,18.20
2018-05-15T07:00:00.945Z,18.20
2018-05-15T07:02:29.144Z,18.50
2018-05-15T07:04:57.643Z,18.60
2018-05-15T07:07:26.236Z,18.70
2018-05-15T07:09:54.440Z,18.90
2018-05-15T07:15:07.647Z,19.00
2018-05-15T07:17:35.844Z,19.10
2018-05-15T07:20:04.820Z,19.50
2018-05-15T07:22:33.037Z,19.50
2018-05-15T07:25:01.245Z,19.70
2018-05-15T07:27:29.524Z,19.80
2018-05-15T07:29:58.852Z,20.20
2018-05-15T07:32:27.494Z,20.20
2018-05-15T07:34:55.772Z,19.90
2018-05-15T07:37:24.298Z,20.20
2018-05-15T07:39:52.502Z,20.40
2018-05-15T07:42:21.892Z,20.70
2018-05-15T07:44:50.094Z,20.60
2018-05-15T07:47:18.300Z,20.80
2018-05-15T07:49:46.521Z,21.10
2018-05-15T07:52:15.090Z,21.30
2018-05-15T07:54:43.577Z,21.20
2018-05-15T07:57:11.780Z,21.10
2018-05-15T07:59:39.998Z,21.20
2018-05-15T08:02:08.698Z,21.40
2018-05-15T08:04:37.094Z,21.60
2018-05-15T08:07:06.021Z,21.80
2018-05-15T08:09:34.229Z,21.30
2018-05-15T08:12:02.950Z,21.00
2018-05-15T08:14:31.223Z,21.20
2018-05-15T08:16:59.875Z,21.50
2018-05-15T08:19:28.121Z,21.50
2018-05-15T08:21:56.584Z,21.40
2018-05-15T08:24:25.393Z,21.50
2018-05-15T08:26:54.596Z,21.90
2018-05-15T08:29:23.136Z,21.90
2018-05-15T08:31:51.948Z,21.90
2018-05-15T08:34:21.292Z,22.50
2018-05-15T08:36:49.507Z,22.50
2018-05-15T08:39:18.603Z,23.00
2018-05-15T08:41:46.816Z,23.00
2018-05-15T08:44:16.001Z,23.00
2018-05-15T08:46:44.988Z,22.90
2018-05-15T08:49:13.661Z,22.80
2018-05-15T08:51:41.856Z,23.00
2018-05-15T08:54:17.569Z,23.30
2018-05-15T08:56:45.778Z,23.20
2018-05-15T08:59:13.981Z,23.30
2018-05-15T09:01:42.211Z,23.40
2018-05-15T09:04:10.420Z,23.30
2018-05-15T09:06:39.565Z,23.40
2018-05-15T09:09:07.920Z,23.40
2018-05-15T09:11:36.462Z,23.50
2018-05-15T09:14:04.924Z,23.30
2018-05-15T09:16:33.124Z,23.40
2018-05-15T09:19:02.092Z,23.70
2018-05-15T09:21:30.608Z,23.70
2018-05-15T09:23:59.572Z,23.50
2018-05-15T09:26:27.936Z,23.50
2018-05-15T09:28:56.552Z,23.60
2018-05-15T09:31:24.927Z,23.90
2018-05-15T09:33:53.517Z,24.10
2018-05-15T09:36:22.452Z,23.90
2018-05-15T09:38:50.682Z,23.60
2018-05-15T09:41:18.875Z,23.40
2018-05-15T09:43:55.595Z,23.20
2018-05-15T09:46:23.776Z,23.20
2018-05-15T09:48:52.507Z,22.90
2018-05-15T09:51:21.473Z,22.30
2018-05-15T09:53:50.073Z,22.30
2018-05-15T09:56:19.141Z,22.10
2018-05-15T09:58:47.331Z,22.20
2018-05-15T10:01:15.545Z,21.90
2018-05-15T10:03:44.808Z,21.90
2018-05-15T10:06:13.008Z,21.90
2018-05-15T10:08:42.211Z,22.10
2018-05-15T10:11:11.811Z,21.90
2018-05-15T10:13:40.384Z,21.90
2018-05-15T10:16:08.588Z,21.90
2018-05-15T10:18:36.783Z,21.90
2018-05-15T10:21:05.008Z,21.80
2018-05-15T10:23:33.479Z,21.70
2018-05-15T10:26:02.183Z,21.70
2018-05-15T10:28:30.391Z,21.50
2018-05-15T10:30:59.440Z,21.20
2018-05-15T10:33:31.384Z,21.10
2018-05-15T10:35:59.586Z,21.20
2018-05-15T10:38:27.860Z,21.40
2018-05-15T10:40:56.073Z,21.60
2018-05-15T10:43:24.272Z,21.90
2018-05-15T10:45:52.857Z,21.70
2018-05-15T10:48:21.137Z,21.70
2018-05-15T10:50:49.402Z,21.60
2018-05-15T10:53:17.564Z,21.60
2018-05-15T10:55:46.220Z,21.50
2018-05-15T10:58:14.434Z,21.30
2018-05-15T11:00:43.964Z,21.30
2018-05-15T11:03:12.196Z,21.20
2018-05-15T11:05:40.401Z,21.20
2018-05-15T11:08:08.953Z,21.20
2018-05-15T11:10:45.947Z,21.20
2018-05-15T11:13:15.312Z,21.00
2018-05-15T11:15:43.510Z,21.00
2018-05-15T11:18:24.381Z,21.00
2018-05-15T11:21:05.282Z,20.90
2018-05-15T11:23:45.279Z,20.90
2018-05-15T11:26:14.392Z,20.90
2018-05-15T11:28:46.983Z,20.90
2018-05-15T11:31:18.449Z,21.10
2018-05-15T11:33:47.843Z,21.10
2018-05-15T11:36:16.721Z,21.20
2018-05-15T11:38:45.226Z,21.10
2018-05-15T11:41:14.188Z,21.10
2018-05-15T11:43:42.722Z,21.10
2018-05-15T11:46:10.919Z,21.10
2018-05-15T11:48:39.587Z,21.00
2018-05-15T11:51:08.101Z,21.00
2018-05-15T11:53:35.615Z,21.00
2018-05-15T11:56:04.387Z,21.10
2018-05-15T11:58:33.655Z,21.20
2018-05-15T12:01:01.855Z,21.10
2018-05-15T12:03:30.061Z,21.00
2018-05-15T12:05:58.283Z,20.90
2018-05-15T12:08:27.844Z,20.50
2018-05-15T12:11:04.507Z,20.50
2018-05-15T12:13:32.776Z,20.30
2018-05-15T12:16:01.756Z,20.00
2018-05-15T12:18:31.134Z,19.90
2018-05-15T12:20:59.505Z,19.90
2018-05-15T12:23:27.661Z,19.80
2018-05-15T12:25:56.301Z,19.70
2018-05-15T12:28:24.504Z,19.60
2018-05-15T12:30:53.048Z,19.50
2018-05-15T12:33:21.533Z,19.30
2018-05-15T12:35:49.769Z,19.10
2018-05-15T12:38:18.076Z,19.00
2018-05-15T12:40:46.340Z,19.00
2018-05-15T12:43:15.300Z,19.30
2018-05-15T12:45:44.178Z,19.30
2018-05-15T12:48:12.745Z,19.40
2018-05-15T12:50:40.869Z,19.30
2018-05-15T12:53:09.087Z,19.40
2018-05-15T12:55:37.676Z,19.50
2018-05-15T12:58:05.872Z,19.60
2018-05-15T13:00:42.050Z,19.70
2018-05-15T13:03:10.561Z,19.70
2018-05-15T13:05:38.796Z,19.70
2018-05-15T13:08:07.648Z,19.70
2018-05-15T13:10:35.848Z,19.50
2018-05-15T13:13:04.780Z,19.40
2018-05-15T13:15:33.748Z,19.10
2018-05-15T13:18:01.948Z,19.10
2018-05-15T13:20:30.160Z,19.10
2018-05-15T13:22:58.364Z,19.00
2018-05-15T13:25:27.324Z,19.20
2018-05-15T13:27:55.803Z,19.20
2018-05-15T13:30:24.496Z,19.20
2018-05-15T13:32:52.899Z,19.10
2018-05-15T13:35:21.955Z,19.10
2018-05-15T13:37:51.224Z,19.10
2018-05-15T13:40:19.430Z,19.10
2018-05-15T13:42:47.776Z,19.20
2018-05-15T13:45:15.972Z,19.30
2018-05-15T13:47:44.176Z,19.40
2018-05-15T13:50:12.388Z,19.50
2018-05-15T13:52:41.362Z,19.50
2018-05-15T13:55:10.074Z,19.50
2018-05-15T13:57:38.264Z,19.50
2018-05-15T14:00:06.460Z,19.50
2018-05-15T14:02:34.995Z,19.50
2018-05-15T14:05:03.986Z,19.70
2018-05-15T14:07:32.756Z,19.70
2018-05-15T14:10:01.344Z,19.80
2018-05-15T14:12:30.574Z,19.90
2018-05-15T14:14:59.757Z,19.90
2018-05-15T14:17:27.957Z,19.90
2018-05-15T14:19:56.248Z,19.90
2018-05-15T14:22:24.449Z,19.80
2018-05-15T14:24:52.652Z,19.70
2018-05-15T14:27:20.944Z,19.70
2018-05-15T14:29:50.073Z,19.70
2018-05-15T14:32:18.329Z,19.70
2018-05-15T14:34:46.896Z,19.70
2018-05-15T14:37:15.945Z,19.50
2018-05-15T14:39:44.142Z,19.40
2018-05-15T14:42:24.976Z,19.50
2018-05-15T14:44:53.184Z,19.40
2018-05-15T14:47:21.376Z,19.40
2018-05-15T14:49:49.796Z,19.40
2018-05-15T14:52:18.005Z,19.40
2018-05-15T14:54:47.039Z,19.30
2018-05-15T14:57:16.024Z,19.20
2018-05-15T14:59:44.223Z,19.20
2018-05-15T15:02:13.216Z,19.30
2018-05-15T15:04:43.475Z,19.20
2018-05-15T15:07:12.393Z,19.20
2018-05-15T15:09:40.588Z,19.10
2018-05-15T15:12:09.772Z,19.10
2018-05-15T15:14:38.284Z,19.00
2018-05-15T15:17:07.350Z,18.90
2018-05-15T15:19:35.903Z,18.90
2018-05-15T15:22:11.376Z,18.80
2018-05-15T15:24:39.588Z,18.80
2018-05-15T15:27:07.889Z,18.80
2018-05-15T15:29:36.250Z,18.80
2018-05-15T15:32:04.669Z,18.80
2018-05-15T15:34:33.493Z,18.80
2018-05-15T15:37:01.740Z,18.80
2018-05-15T15:39:30.451Z,18.80
2018-05-15T15:41:58.952Z,18.80
2018-05-15T15:44:27.925Z,18.70
2018-05-15T15:46:56.149Z,18.70
2018-05-15T15:49:24.384Z,18.60
2018-05-15T15:51:52.599Z,18.60
2018-05-15T15:54:21.013Z,18.70
2018-05-15T15:56:51.216Z,18.80
2018-05-15T15:59:19.417Z,18.70
2018-05-15T16:01:47.624Z,18.90
2018-05-15T16:04:16.118Z,19.20
2018-05-15T16:06:53.649Z,19.10
2018-05-15T16:09:21.860Z,19.10
2018-05-15T16:11:50.768Z,19.20
2018-05-15T16:14:19.909Z,19.50
2018-05-15T16:16:48.122Z,19.40
2018-05-15T16:19:16.350Z,19.50
2018-05-15T16:21:44.580Z,19.40
2018-05-15T16:24:12.804Z,19.20
2018-05-15T16:26:41.443Z,19.00
2018-05-15T16:29:10.020Z,18.90
2018-05-15T16:31:38.923Z,18.90
2018-05-15T16:34:07.095Z,19.00
2018-05-15T16:36:35.288Z,19.00
2018-05-15T16:39:03.844Z,19.00
2018-05-15T16:41:32.093Z,19.00
2018-05-15T16:44:00.292Z,19.10
2018-05-15T16:46:28.497Z,19.10
2018-05-15T16:48:57.400Z,19.00
2018-05-15T16:51:26.368Z,18.80
2018-05-15T16:53:58.640Z,18.80
2018-05-15T16:56:27.123Z,18.70
2018-05-15T16:58:55.335Z,18.60
2018-05-15T17:01:23.543Z,18.50
2018-05-15T17:03:51.953Z,18.50
2018-05-15T17:06:20.650Z,18.50
2018-05-15T17:08:49.233Z,18.30
2018-05-15T17:11:17.916Z,18.20
2018-05-15T17:13:46.481Z,18.10
2018-05-15T17:16:16.043Z,18.00
2018-05-15T17:18:44.244Z,18.00
2018-05-15T17:21:12.766Z,17.90
2018-05-15T17:23:41.560Z,17.80
2018-05-15T17:26:10.892Z,17.60
2018-05-15T17:28:39.174Z,17.60
2018-05-15T17:31:07.607Z,17.60
2018-05-15T17:33:36.061Z,17.60
2018-05-15T17:36:04.256Z,17.50
2018-05-15T17:38:32.755Z,17.50
2018-05-15T17:41:01.057Z,17.30
2018-05-15T17:43:30.038Z,17.30
2018-05-15T17:45:58.251Z,17.30
2018-05-15T17:48:26.514Z,17.20
2018-05-15T17:50:54.656Z,17.10
2018-05-15T17:53:23.643Z,17.10
2018-05-15T17:55:52.349Z,17.00
2018-05-15T17:58:21.135Z,17.00
2018-05-15T18:00:50.096Z,16.90
2018-05-15T18:03:18.509Z,16.90
2018-05-15T18:05:51.175Z,16.90
2018-05-15T18:08:19.738Z,16.90
2018-05-15T18:10:48.276Z,16.90
2018-05-15T18:13:22.973Z,16.90
2018-05-15T18:15:52.365Z,16.80
2018-05-15T18:18:20.584Z,16.80
2018-05-15T18:20:48.789Z,16.90
2018-05-15T18:23:17.189Z,16.80
2018-05-15T18:25:53.659Z,16.80
2018-05-15T18:28:21.860Z,16.70
2018-05-15T18:30:50.916Z,16.80
2018-05-15T18:33:19.297Z,16.70
2018-05-15T18:35:47.496Z,16.70
2018-05-15T18:38:16.224Z,16.70
2018-05-15T18:40:45.272Z,16.60
2018-05-15T18:43:13.489Z,16.50
2018-05-15T18:45:42.060Z,16.30
2018-05-15T18:48:11.048Z,16.20
2018-05-15T18:50:39.734Z,16.20
2018-05-15T18:53:09.020Z,16.10
2018-05-15T18:55:37.538Z,16.00
2018-05-15T18:58:05.886Z,15.90
2018-05-15T19:00:34.008Z,15.90
2018-05-15T19:03:02.652Z,15.70
2018-05-15T19:05:30.856Z,15.70
2018-05-15T19:07:59.131Z,15.60
2018-05-15T19:10:27.324Z,15.50
2018-05-15T19:12:55.972Z,15.50
2018-05-15T19:15:25.376Z,15.40
2018-05-15T19:17:53.592Z,15.30
2018-05-15T19:20:21.787Z,15.20
2018-05-15T19:22:56.465Z,15.30
2018-05-15T19:25:25.456Z,15.40
2018-05-15T19:27:53.762Z,15.30
2018-05-15T19:30:22.182Z,15.40
2018-05-15T19:32:56.872Z,15.40
2018-05-15T19:35:29.931Z,15.50
2018-05-15T19:37:58.520Z,15.40
2018-05-15T19:40:30.304Z,15.40
2018-05-15T19:42:59.501Z,15.40
2018-05-15T19:45:28.458Z,15.30
2018-05-15T19:47:56.666Z,15.30
2018-05-15T19:50:24.948Z,15.20
2018-05-15T19:52:53.141Z,15.20
2018-05-15T19:55:21.416Z,15.30
2018-05-15T19:57:50.092Z,15.30
2018-05-15T20:00:18.289Z,15.20
2018-05-15T20:02:46.498Z,14.90
2018-05-15T20:05:15.199Z,14.90
2018-05-15T20:07:44.549Z,15.00
2018-05-15T20:10:13.924Z,14.90
2018-05-15T20:12:42.656Z,14.90
2018-05-15T20:15:11.464Z,14.90
2018-05-15T20:17:40.381Z,15.00
2018-05-15T20:20:09.348Z,14.80
2018-05-15T20:22:37.866Z,14.80
2018-05-15T20:25:06.062Z,14.70
2018-05-15T20:27:34.308Z,14.60
2018-05-15T20:30:03.631Z,14.70
2018-05-15T20:32:31.900Z,14.70
2018-05-15T20:35:00.165Z,14.70
2018-05-15T20:37:28.609Z,14.50
2018-05-15T20:39:57.072Z,14.50
2018-05-15T20:42:25.278Z,14.60
2018-05-15T20:44:53.499Z,14.50
2018-05-15T20:47:21.702Z,14.40
2018-05-15T20:49:49.900Z,14.40
2018-05-15T20:52:18.137Z,14.60
2018-05-15T20:54:56.932Z,14.40
2018-05-15T20:57:25.896Z,14.60
2018-05-15T20:59:54.100Z,14.60
2018-05-15T21:02:23.096Z,14.60
2018-05-15T21:04:51.296Z,14.60
2018-05-15T21:07:20.588Z,14.60
2018-05-15T21:09:48.784Z,14.50
2018-05-15T21:12:17.064Z,14.50
2018-05-15T21:14:45.980Z,14.50
2018-05-15T21:17:14.190Z,14.50
2018-05-15T21:19:42.759Z,14.60
2018-05-15T21:22:10.952Z,14.50
2018-05-15T21:24:39.700Z,14.30
2018-05-15T21:27:09.001Z,14.20
2018-05-15T21:29:37.761Z,14.20
2018-05-15T21:32:06.027Z,14.30
2018-05-15T21:34:34.216Z,14.40
2018-05-15T21:37:02.617Z,14.40
2018-05-15T21:39:31.452Z,14.30
2018-05-15T21:42:00.433Z,14.30
2018-05-15T21:44:28.636Z,14.30
2018-05-15T21:46:57.087Z,14.40
2018-05-15T21:49:26.055Z,14.40
2018-05-15T21:51:54.252Z,14.40
2018-05-15T21:54:23.233Z,14.50
2018-05-15T21:56:52.034Z,14.40
2018-05-15T21:59:20.232Z,14.40
2018-05-15T22:01:48.452Z,14.30
2018-05-15T22:04:16.870Z,14.40
2018-05-15T22:06:53.285Z,14.30
2018-05-15T22:09:21.536Z,14.40
2018-05-15T22:12:03.544Z,14.40
2018-05-15T22:14:44.464Z,14.50
2018-05-15T22:17:30.965Z,14.50
2018-05-15T22:20:11.976Z,14.50
2018-05-15T22:22:39.711Z,14.50
2018-05-15T22:25:07.904Z,14.40
2018-05-15T22:27:36.189Z,14.30
2018-05-15T22:30:04.561Z,14.40
2018-05-15T22:32:33.036Z,14.40
2018-05-15T22:35:01.245Z,14.50
2018-05-15T22:37:29.686Z,14.50
2018-05-15T22:39:57.884Z,14.50
2018-05-15T22:42:26.081Z,14.40
2018-05-15T22:44:54.297Z,14.30
2018-05-15T22:47:22.500Z,14.30
2018-05-15T22:49:50.703Z,14.30
2018-05-15T22:52:18.936Z,14.30
2018-05-15T22:54:58.671Z,14.30
2018-05-15T22:57:26.868Z,14.30
2018-05-15T22:59:55.552Z,14.40
2018-05-15T23:02:23.752Z,14.40
2018-05-15T23:04:52.726Z,14.40
2018-05-15T23:07:21.096Z,14.30
2018-05-15T23:09:50.219Z,14.20
2018-05-15T23:12:19.937Z,14.20
2018-05-15T23:14:49.266Z,14.10
2018-05-15T23:17:17.471Z,14.10
2018-05-15T23:19:46.352Z,14.10
2018-05-15T23:22:26.217Z,14.10
2018-05-15T23:24:54.441Z,14.10
2018-05-15T23:27:22.689Z,14.20
2018-05-15T23:29:51.253Z,14.20
2018-05-15T23:32:19.569Z,14.20
2018-05-15T23:34:48.532Z,14.20
2018-05-15T23:37:17.963Z,14.20
2018-05-15T23:39:46.173Z,14.30
2018-05-15T23:42:14.367Z,14.30
2018-05-15T23:44:42.591Z,14.30
2018-05-15T23:47:11.345Z,14.30
2018-05-15T23:49:39.544Z,14.30
2018-05-15T23:52:07.752Z,14.20
2018-05-15T23:54:35.973Z,14.10
2018-05-15T23:57:05.303Z,14.10
2018-05-15T23:59:34.273Z,14.10
